createdAt,value
2017-11-03T00:00:21.467Z,20.35
2017-11-03T00:02:48.708Z,20.33
2017-11-03T00:05:15.945Z,20.34
2017-11-03T00:07:43.117Z,20.33
2017-11-03T00:10:10.296Z,20.32
2017-11-03T00:12:37.526Z,20.31
2017-11-03T00:15:04.709Z,20.29
2017-11-03T00:17:31.932Z,20.28
2017-11-03T00:19:59.098Z,20.28
2017-11-03T00:22:26.322Z,20.27
2017-11-03T00:24:53.475Z,20.26
2017-11-03T00:27:20.680Z,20.27
2017-11-03T00:29:47.820Z,20.25
2017-11-03T00:32:15.027Z,20.24
2017-11-03T00:34:42.222Z,20.23
2017-11-03T00:37:09.439Z,20.24
2017-11-03T00:39:36.755Z,20.21
2017-11-03T00:42:03.912Z,20.21
2017-11-03T00:44:31.074Z,20.19
2017-11-03T00:46:58.287Z,20.18
2017-11-03T00:49:25.449Z,20.17
2017-11-03T00:51:52.669Z,20.17
2017-11-03T00:54:19.830Z,20.17
2017-11-03T00:56:47.025Z,20.16
2017-11-03T00:59:14.236Z,20.15
2017-11-03T01:01:41.416Z,20.13
2017-11-03T01:04:08.676Z,20.11
2017-11-03T01:06:35.903Z,20.12
2017-11-03T01:09:03.154Z,20.11
2017-11-03T01:11:30.344Z,20.11
2017-11-03T01:13:57.519Z,20.09
2017-11-03T01:16:24.768Z,20.08
2017-11-03T01:18:51.948Z,20.08
2017-11-03T01:21:19.168Z,20.06
2017-11-03T01:23:46.351Z,20.05
2017-11-03T01:26:13.511Z,20.04
2017-11-03T01:28:40.711Z,20.03
2017-11-03T01:31:07.928Z,20.03
2017-11-03T01:33:35.183Z,20.03
2017-11-03T01:36:02.371Z,20.02
2017-11-03T01:38:29.538Z,20.00
2017-11-03T01:40:56.731Z,20.01
2017-11-03T01:43:23.916Z,19.99
2017-11-03T01:45:51.125Z,19.99
2017-11-03T01:48:18.301Z,19.98
2017-11-03T01:50:45.518Z,19.97
2017-11-03T01:53:12.687Z,19.95
2017-11-03T01:55:40.274Z,19.94
2017-11-03T01:58:07.447Z,19.93
2017-11-03T02:00:34.629Z,19.92
2017-11-03T02:03:01.816Z,19.95
2017-11-03T02:05:28.985Z,19.98
2017-11-03T02:07:56.190Z,19.91
2017-11-03T02:10:23.373Z,19.82
2017-11-03T02:12:50.593Z,19.76
2017-11-03T02:15:17.816Z,19.70
2017-11-03T02:17:44.999Z,19.65
2017-11-03T02:20:12.229Z,19.63
2017-11-03T02:22:39.382Z,19.59
2017-11-03T02:25:06.564Z,19.55
2017-11-03T02:27:33.778Z,19.52
2017-11-03T02:30:00.993Z,19.24
2017-11-03T02:32:28.265Z,19.49
2017-11-03T02:34:55.459Z,19.46
2017-11-03T02:37:22.663Z,19.45
2017-11-03T02:39:49.855Z,19.43
2017-11-03T02:42:17.093Z,19.44
2017-11-03T02:44:44.279Z,19.41
2017-11-03T02:47:11.431Z,19.39
2017-11-03T02:49:38.659Z,19.40
2017-11-03T02:52:05.874Z,19.38
2017-11-03T02:54:33.068Z,19.37
2017-11-03T02:57:00.231Z,19.37
2017-11-03T02:59:27.474Z,19.35
2017-11-03T03:01:54.836Z,19.38
2017-11-03T03:04:21.993Z,19.35
2017-11-03T03:06:49.203Z,19.35
2017-11-03T03:09:16.428Z,19.33
2017-11-03T03:11:43.611Z,19.32
2017-11-03T03:14:10.868Z,19.30
2017-11-03T03:16:38.022Z,19.29
2017-11-03T03:19:05.748Z,19.30
2017-11-03T03:21:32.959Z,19.31
2017-11-03T03:24:00.134Z,19.29
2017-11-03T03:26:27.351Z,19.27
2017-11-03T03:28:54.542Z,19.27
2017-11-03T03:31:21.765Z,19.28
2017-11-03T03:33:48.944Z,19.27
2017-11-03T03:36:16.119Z,19.26
2017-11-03T03:38:43.316Z,19.27
2017-11-03T03:41:10.519Z,19.27
2017-11-03T03:43:37.711Z,19.24
2017-11-03T03:46:04.987Z,19.25
2017-11-03T03:48:32.216Z,19.25
2017-11-03T03:50:59.423Z,19.25
2017-11-03T03:53:26.624Z,19.22
2017-11-03T03:55:53.807Z,19.21
2017-11-03T03:58:20.948Z,19.20
2017-11-03T04:00:48.162Z,19.19
2017-11-03T04:03:15.332Z,19.21
2017-11-03T04:05:42.536Z,19.20
2017-11-03T04:08:09.736Z,19.19
2017-11-03T04:10:36.947Z,19.18
2017-11-03T04:13:04.169Z,19.17
2017-11-03T04:15:31.348Z,19.17
2017-11-03T04:17:58.576Z,19.17
2017-11-03T04:20:25.788Z,19.18
2017-11-03T04:22:52.995Z,19.16
2017-11-03T04:25:20.148Z,19.15
2017-11-03T04:27:47.395Z,19.14
2017-11-03T04:30:14.576Z,19.15
2017-11-03T04:32:41.755Z,19.18
2017-11-03T04:35:08.980Z,19.20
2017-11-03T04:37:36.140Z,19.19
2017-11-03T04:40:03.311Z,19.20
2017-11-03T04:42:30.745Z,19.22
2017-11-03T04:44:57.998Z,19.27
2017-11-03T04:47:25.210Z,19.30
2017-11-03T04:49:52.395Z,19.34
2017-11-03T04:52:19.602Z,19.41
2017-11-03T04:54:46.780Z,19.44
2017-11-03T04:57:13.966Z,19.47
2017-11-03T04:59:41.148Z,19.50
2017-11-03T05:02:08.391Z,19.53
2017-11-03T05:04:35.555Z,19.56
2017-11-03T05:07:02.798Z,19.59
2017-11-03T05:09:29.955Z,19.61
2017-11-03T05:11:57.162Z,19.65
2017-11-03T05:14:24.372Z,19.66
2017-11-03T05:16:51.555Z,19.69
2017-11-03T05:19:18.783Z,19.70
2017-11-03T05:21:46.102Z,19.74
2017-11-03T05:24:13.362Z,19.76
2017-11-03T05:26:40.566Z,19.77
2017-11-03T05:29:07.779Z,19.76
2017-11-03T05:31:34.978Z,19.78
2017-11-03T05:34:02.218Z,19.80
2017-11-03T05:36:29.397Z,19.80
2017-11-03T05:38:56.630Z,19.80
2017-11-03T05:41:23.864Z,19.83
2017-11-03T05:43:51.083Z,19.84
2017-11-03T05:46:18.330Z,19.88
2017-11-03T05:48:45.509Z,19.91
2017-11-03T05:51:12.689Z,19.94
2017-11-03T05:53:40.799Z,19.97
2017-11-03T05:56:08.020Z,19.99
2017-11-03T05:58:35.356Z,20.01
2017-11-03T06:01:04.827Z,20.01
2017-11-03T06:03:32.029Z,20.00
2017-11-03T06:05:59.295Z,20.01
2017-11-03T06:08:26.548Z,20.04
2017-11-03T06:10:53.774Z,20.04
2017-11-03T06:13:20.940Z,20.04
2017-11-03T06:15:48.129Z,20.06
2017-11-03T06:18:15.468Z,20.09
2017-11-03T06:20:42.702Z,20.10
2017-11-03T06:23:09.982Z,20.09
2017-11-03T06:25:37.209Z,20.10
2017-11-03T06:28:04.523Z,20.13
2017-11-03T06:30:32.126Z,20.13
2017-11-03T06:32:59.409Z,20.13
2017-11-03T11:00:54.568Z,22.65
2017-11-03T11:09:04.795Z,22.82
2017-11-03T11:16:45.652Z,22.86
2017-11-03T11:29:56.635Z,22.92
2017-11-03T11:32:24.195Z,22.93
2017-11-03T11:34:51.612Z,22.95
2017-11-03T11:37:18.917Z,22.92
2017-11-03T11:39:46.211Z,22.93
2017-11-03T11:44:46.997Z,22.97
2017-11-03T11:52:50.035Z,22.99
2017-11-03T12:18:34.905Z,23.02
2017-11-03T12:37:17.223Z,23.01
2017-11-03T14:44:34.244Z,23.38
2017-11-03T14:52:28.871Z,23.35
2017-11-03T14:57:40.381Z,23.36
2017-11-03T15:00:28.728Z,23.32
2017-11-03T15:02:59.159Z,23.31
2017-11-03T15:05:47.006Z,23.29
2017-11-03T15:08:18.275Z,23.24
2017-11-03T15:10:58.201Z,23.28
2017-11-03T15:13:40.392Z,23.33
2017-11-03T15:16:20.265Z,23.29
2017-11-03T15:21:35.322Z,23.31
2017-11-03T15:24:02.730Z,23.29
2017-11-03T15:26:31.115Z,23.30
2017-11-03T15:34:22.981Z,23.30
2017-11-03T15:36:50.186Z,23.27
2017-11-03T15:39:17.531Z,23.26
2017-11-03T15:41:44.737Z,23.25
2017-11-03T15:44:12.046Z,23.26
2017-11-03T15:46:52.324Z,23.26
2017-11-03T15:49:19.554Z,23.24
2017-11-03T15:57:09.250Z,23.20
2017-11-03T15:59:36.506Z,23.19
2017-11-03T16:02:03.684Z,23.19
2017-11-03T16:04:52.250Z,23.16
2017-11-03T16:07:19.587Z,23.13
2017-11-03T16:09:57.692Z,23.14
2017-11-03T16:12:24.913Z,23.14
2017-11-03T16:14:52.392Z,23.12
2017-11-03T16:20:19.748Z,23.05
2017-11-03T16:22:47.119Z,23.06
2017-11-03T16:25:14.502Z,23.06
2017-11-03T16:27:52.171Z,23.01
2017-11-03T16:30:27.047Z,23.01
2017-11-03T16:32:54.369Z,22.98
2017-11-03T16:35:21.623Z,22.98
2017-11-03T16:37:48.931Z,22.97
2017-11-03T16:40:40.119Z,22.97
2017-11-03T16:45:41.122Z,22.94
2017-11-03T16:48:08.423Z,22.92
2017-11-03T16:50:35.709Z,22.92
2017-11-03T16:53:03.044Z,22.90
2017-11-03T16:55:30.990Z,22.88
2017-11-03T16:58:12.469Z,22.86
2017-11-03T17:00:40.131Z,22.85
2017-11-03T17:03:07.403Z,22.85
2017-11-03T17:05:41.839Z,22.85
2017-11-03T17:08:09.045Z,22.83
2017-11-03T17:10:36.341Z,22.80
2017-11-03T17:13:03.850Z,22.83
2017-11-03T17:15:31.352Z,22.81
2017-11-03T17:17:58.609Z,22.78
2017-11-03T17:20:25.889Z,22.77
2017-11-03T17:22:53.139Z,22.76
2017-11-03T17:25:20.344Z,22.76
2017-11-03T17:27:47.654Z,22.74
2017-11-03T17:30:14.904Z,22.73
2017-11-03T17:38:10.819Z,22.70
2017-11-03T17:40:38.016Z,22.70
2017-11-03T17:43:05.234Z,22.67
2017-11-03T17:45:32.614Z,22.67
2017-11-03T17:47:59.838Z,22.65
2017-11-03T17:53:25.166Z,22.64
2017-11-03T17:55:52.376Z,22.63
2017-11-03T17:58:19.657Z,22.62
2017-11-03T18:00:46.909Z,22.61
2017-11-03T18:03:14.114Z,22.60
2017-11-03T18:05:41.330Z,22.62
2017-11-03T18:08:08.536Z,22.64
2017-11-03T18:13:39.988Z,22.67
2017-11-03T18:16:08.480Z,22.68
2017-11-03T18:18:48.239Z,22.68
2017-11-03T18:21:15.440Z,22.69
2017-11-03T18:23:52.659Z,22.69
2017-11-03T18:26:40.507Z,22.70
2017-11-03T18:29:07.724Z,22.71
2017-11-03T18:31:35.006Z,22.73
2017-11-03T18:34:02.219Z,22.74
2017-11-03T18:36:29.388Z,22.72
2017-11-03T18:39:04.561Z,22.67
2017-11-03T18:41:31.876Z,22.62
2017-11-03T18:43:59.100Z,22.57
2017-11-03T18:46:26.323Z,22.53
2017-11-03T18:48:53.845Z,22.49
2017-11-03T18:51:21.071Z,22.44
2017-11-03T18:53:48.310Z,22.41
2017-11-03T18:56:15.596Z,22.37
2017-11-03T18:58:42.833Z,22.33
2017-11-03T19:01:18.480Z,22.29
2017-11-03T19:03:45.745Z,22.26
2017-11-03T19:06:12.926Z,22.23
2017-11-03T19:08:52.828Z,22.20
2017-11-03T19:11:20.077Z,22.18
2017-11-03T19:13:47.279Z,22.16
2017-11-03T19:19:04.997Z,22.12
2017-11-03T19:21:45.155Z,22.09
2017-11-03T19:24:12.414Z,22.07
2017-11-03T19:26:39.673Z,22.05
2017-11-03T19:29:06.896Z,22.04
2017-11-03T19:31:41.646Z,22.00
2017-11-03T19:34:08.839Z,22.00
2017-11-03T19:36:36.061Z,21.98
2017-11-03T19:39:03.223Z,21.97
2017-11-03T19:41:30.460Z,21.95
2017-11-03T19:43:57.670Z,21.94
2017-11-03T19:46:24.961Z,21.92
2017-11-03T19:49:02.610Z,21.90
2017-11-03T19:51:29.821Z,21.89
2017-11-03T19:53:57.012Z,21.88
2017-11-03T19:56:24.338Z,21.86
2017-11-03T20:01:25.867Z,21.85
2017-11-03T20:03:53.120Z,21.84
2017-11-03T20:06:20.333Z,21.84
2017-11-03T20:11:19.709Z,21.81
2017-11-03T20:13:46.933Z,21.80
2017-11-03T20:16:24.820Z,21.80
2017-11-03T20:18:52.119Z,21.79
2017-11-03T20:23:59.300Z,21.77
2017-11-03T20:26:26.509Z,21.76
2017-11-03T20:28:53.683Z,21.75
2017-11-03T20:31:20.904Z,21.74
2017-11-03T20:33:48.096Z,21.73
2017-11-03T20:36:16.300Z,21.71
2017-11-03T20:38:43.557Z,21.69
2017-11-03T20:41:28.061Z,21.69
2017-11-03T20:43:55.269Z,21.67
2017-11-03T20:46:22.473Z,21.66
2017-11-03T20:48:49.656Z,21.65
2017-11-03T20:51:16.874Z,21.63
2017-11-03T20:53:44.184Z,21.62
2017-11-03T20:56:11.383Z,21.62
2017-11-03T20:58:38.610Z,21.60
2017-11-03T21:01:16.068Z,21.60
2017-11-03T21:03:43.294Z,21.59
2017-11-03T21:06:10.544Z,21.59
2017-11-03T21:08:37.755Z,21.57
2017-11-03T21:11:04.986Z,21.56
2017-11-03T21:16:24.748Z,21.55
2017-11-03T21:18:52.045Z,21.54
2017-11-03T21:21:31.654Z,21.53
2017-11-03T21:23:58.849Z,21.52
2017-11-03T21:26:26.044Z,21.52
2017-11-03T21:29:03.273Z,21.50
2017-11-03T21:31:30.509Z,21.51
2017-11-03T21:33:57.718Z,21.50
2017-11-03T21:36:32.213Z,21.49
2017-11-03T21:38:59.548Z,21.49
2017-11-03T21:41:26.762Z,21.49
2017-11-03T21:43:53.981Z,21.46
2017-11-03T21:46:21.233Z,21.46
2017-11-03T21:48:48.392Z,21.46
2017-11-03T21:51:15.664Z,21.46
2017-11-03T21:53:42.854Z,21.45
2017-11-03T21:56:10.145Z,21.44
2017-11-03T21:58:37.416Z,21.42
2017-11-03T22:01:05.428Z,21.42
2017-11-03T22:03:32.872Z,21.39
2017-11-03T22:06:12.752Z,21.38
2017-11-03T22:08:39.997Z,21.36
2017-11-03T22:11:07.216Z,21.34
2017-11-03T22:16:15.264Z,21.30
2017-11-03T22:18:42.499Z,21.28
2017-11-03T22:21:09.814Z,21.26
2017-11-03T22:26:32.320Z,21.21
2017-11-03T22:28:59.494Z,21.20
2017-11-03T22:31:26.684Z,21.17
2017-11-03T22:33:53.904Z,21.17
2017-11-03T22:36:21.199Z,21.15
2017-11-03T22:38:48.377Z,21.13
2017-11-03T22:41:15.584Z,21.11
2017-11-03T22:43:42.794Z,21.10
2017-11-03T22:46:22.795Z,21.09
2017-11-03T22:48:49.992Z,21.08
2017-11-03T22:51:17.239Z,21.08
2017-11-03T22:53:44.412Z,21.05
2017-11-03T22:59:04.105Z,21.04
2017-11-03T23:01:31.351Z,21.02
2017-11-03T23:03:58.566Z,21.01
2017-11-03T23:06:25.740Z,21.01
2017-11-03T23:08:52.900Z,20.99
2017-11-03T23:11:20.098Z,20.98
2017-11-03T23:13:47.283Z,20.96
2017-11-03T23:16:14.539Z,20.96
2017-11-03T23:18:41.719Z,20.95
2017-11-03T23:21:08.865Z,20.93
2017-11-03T23:23:36.093Z,20.92
2017-11-03T23:26:03.282Z,20.91
2017-11-03T23:31:10.866Z,20.88
2017-11-03T23:33:38.085Z,20.87
2017-11-03T23:36:05.298Z,20.87
2017-11-03T23:38:32.510Z,20.86
2017-11-03T23:41:08.541Z,20.84
2017-11-03T23:43:35.750Z,20.85
2017-11-03T23:46:10.703Z,20.83
2017-11-03T23:48:37.865Z,20.83
2017-11-03T23:51:28.593Z,20.82
2017-11-03T23:53:55.796Z,20.82
2017-11-03T23:56:39.466Z,20.81
2017-11-03T23:59:06.687Z,20.80
